createdAt,value
2023-05-16T00:02:22.387Z,18.70
2023-05-16T00:06:22.837Z,18.61
2023-05-16T00:10:23.348Z,18.58
2023-05-16T00:14:26.792Z,18.45
2023-05-16T00:18:27.334Z,18.41
2023-05-16T00:22:28.093Z,18.36
2023-05-16T00:26:28.488Z,18.37
2023-05-16T00:30:31.777Z,18.24
2023-05-16T00:34:32.119Z,18.33
2023-05-16T00:38:32.630Z,18.23
2023-05-16T00:42:33.371Z,18.20
2023-05-16T00:46:36.393Z,18.06
2023-05-16T00:50:37.924Z,17.98
2023-05-16T00:54:39.809Z,17.97
2023-05-16T00:58:40.854Z,17.94
2023-05-16T01:02:44.842Z,17.85
2023-05-16T01:06:45.203Z,17.93
2023-05-16T01:10:56.391Z,17.88
2023-05-16T01:15:08.768Z,17.66
2023-05-16T01:19:31.366Z,17.73
2023-05-16T01:23:47.109Z,17.65
2023-05-16T01:27:52.521Z,17.75
2023-05-16T01:31:52.961Z,17.63
2023-05-16T01:36:04.416Z,17.63
2023-05-16T01:40:15.344Z,17.66
2023-05-16T01:44:28.992Z,18.00
2023-05-16T01:48:36.698Z,17.64
2023-05-16T01:52:45.575Z,17.62
2023-05-16T01:56:54.403Z,17.65
2023-05-16T02:01:05.754Z,17.45
2023-05-16T02:05:06.049Z,17.58
2023-05-16T02:09:06.724Z,17.44
2023-05-16T02:13:06.979Z,17.40
2023-05-16T02:17:10.636Z,17.10
2023-05-16T02:21:10.991Z,17.37
2023-05-16T02:25:13.346Z,17.25
2023-05-16T02:29:15.402Z,17.10
2023-05-16T02:33:18.554Z,17.07
2023-05-16T02:37:20.036Z,17.13
2023-05-16T02:41:23.389Z,17.08
2023-05-16T02:45:23.645Z,16.93
2023-05-16T02:49:26.968Z,16.93
2023-05-16T02:53:27.312Z,16.98
2023-05-16T02:57:27.508Z,17.07
2023-05-16T03:01:27.741Z,17.41
2023-05-16T03:05:30.821Z,17.57
2023-05-16T03:09:31.265Z,17.57
2023-05-16T03:13:31.974Z,17.52
2023-05-16T03:17:32.675Z,17.57
2023-05-16T03:21:35.647Z,17.48
2023-05-16T03:25:36.474Z,17.56
2023-05-16T03:29:36.698Z,17.59
2023-05-16T03:33:38.360Z,17.47
2023-05-16T03:37:41.408Z,17.29
2023-05-16T03:41:42.065Z,16.96
2023-05-16T03:45:42.344Z,16.93
2023-05-16T03:49:42.812Z,16.68
2023-05-16T03:53:45.971Z,16.53
2023-05-16T03:57:48.001Z,16.60
2023-05-16T04:01:48.242Z,16.52
2023-05-16T04:05:48.521Z,16.56
2023-05-16T04:09:51.589Z,16.65
2023-05-16T04:13:52.451Z,16.93
2023-05-16T04:17:52.761Z,16.94
2023-05-16T04:21:53.137Z,17.01
2023-05-16T04:25:57.130Z,16.96
2023-05-16T04:29:58.319Z,16.94
2023-05-16T04:33:58.709Z,17.30
2023-05-16T04:37:59.026Z,17.59
2023-05-16T04:42:02.089Z,17.60
2023-05-16T04:46:02.689Z,17.72
2023-05-16T04:50:03.143Z,18.12
2023-05-16T04:54:03.378Z,18.38
2023-05-16T04:58:06.493Z,18.58
2023-05-16T05:02:08.103Z,18.56
2023-05-16T05:06:09.000Z,18.40
2023-05-16T05:10:11.152Z,18.63
2023-05-16T05:14:14.151Z,18.91
2023-05-16T05:18:14.698Z,19.11
2023-05-16T05:22:14.922Z,19.67
2023-05-16T05:26:15.261Z,19.97
2023-05-16T05:30:18.245Z,20.12
2023-05-16T05:34:18.589Z,19.82
2023-05-16T05:38:18.823Z,20.19
2023-05-16T05:42:19.287Z,20.34
2023-05-16T05:46:22.159Z,20.34
2023-05-16T05:50:22.646Z,20.43
2023-05-16T05:54:23.790Z,20.58
2023-05-16T05:58:25.108Z,20.59
2023-05-16T06:02:28.195Z,20.78
2023-05-16T06:06:29.436Z,20.86
2023-05-16T06:10:29.770Z,20.97
2023-05-16T06:14:30.301Z,21.16
2023-05-16T06:18:33.177Z,21.39
2023-05-16T06:22:33.902Z,21.44
2023-05-16T06:26:34.081Z,21.91
2023-05-16T06:30:34.254Z,22.01
2023-05-16T06:34:37.896Z,22.61
2023-05-16T06:38:38.175Z,22.64
2023-05-16T06:42:38.602Z,23.21
2023-05-16T06:46:38.968Z,23.12
2023-05-16T06:50:42.090Z,23.12
2023-05-16T06:54:42.489Z,23.21
2023-05-16T06:58:42.961Z,23.17
2023-05-16T07:02:43.257Z,23.37
2023-05-16T07:06:46.368Z,23.52
2023-05-16T07:10:46.939Z,23.54
2023-05-16T07:14:47.998Z,23.87
2023-05-16T07:18:48.458Z,23.52
2023-05-16T07:22:51.799Z,23.83
2023-05-16T07:26:52.282Z,23.90
2023-05-16T07:30:52.813Z,23.85
2023-05-16T07:34:53.113Z,24.47
2023-05-16T07:38:57.247Z,24.97
2023-05-16T07:42:57.923Z,25.37
2023-05-16T07:46:58.175Z,25.84
2023-05-16T07:50:58.421Z,25.85
2023-05-16T07:55:01.375Z,25.84
2023-05-16T07:59:03.248Z,25.99
2023-05-16T08:03:03.953Z,26.54
2023-05-16T08:07:04.514Z,27.00
2023-05-16T08:11:08.293Z,26.90
2023-05-16T08:15:11.445Z,27.41
2023-05-16T08:19:11.862Z,27.55
2023-05-16T08:23:12.273Z,28.19
2023-05-16T08:27:15.111Z,28.92
2023-05-16T08:31:15.534Z,30.50
2023-05-16T08:35:16.267Z,32.72
2023-05-16T08:39:16.561Z,33.04
2023-05-16T08:43:19.448Z,33.49
2023-05-16T08:47:25.146Z,32.65
2023-05-16T08:51:31.116Z,32.76
2023-05-16T08:55:31.878Z,33.34
2023-05-16T08:59:35.809Z,32.45
2023-05-16T09:03:36.457Z,30.95
2023-05-16T09:07:37.547Z,30.57
2023-05-16T09:11:38.294Z,29.22
2023-05-16T09:15:41.518Z,28.41
2023-05-16T09:19:43.158Z,28.61
2023-05-16T09:23:47.243Z,29.00
2023-05-16T09:27:49.501Z,29.60
2023-05-16T09:31:53.007Z,29.99
2023-05-16T09:35:59.902Z,29.22
2023-05-16T09:40:00.137Z,29.83
2023-05-16T09:44:02.815Z,29.69
2023-05-16T09:48:10.388Z,30.78
2023-05-16T09:52:10.672Z,31.23
2023-05-16T09:56:14.686Z,31.90
2023-05-16T10:00:17.229Z,31.15
2023-05-16T10:04:20.452Z,31.40
2023-05-16T10:08:21.497Z,30.50
2023-05-16T10:12:23.302Z,29.85
2023-05-16T10:16:27.012Z,28.91
2023-05-16T10:20:30.643Z,28.54
2023-05-16T10:24:46.689Z,28.03
2023-05-16T10:28:47.333Z,26.40
2023-05-16T10:32:50.709Z,25.46
2023-05-16T10:36:55.211Z,25.16
2023-05-16T10:40:57.010Z,25.09
2023-05-16T10:45:05.122Z,25.16
2023-05-16T10:49:24.161Z,24.47
2023-05-16T10:53:36.087Z,25.00
2023-05-16T10:57:37.238Z,24.17
2023-05-16T11:01:39.009Z,24.89
2023-05-16T11:05:40.159Z,24.91
2023-05-16T11:09:48.237Z,25.55
2023-05-16T11:13:57.882Z,25.99
2023-05-16T11:18:10.164Z,26.54
2023-05-16T11:22:28.652Z,28.06
2023-05-16T11:26:31.542Z,28.78
2023-05-16T11:30:32.038Z,28.92
2023-05-16T11:34:33.488Z,28.90
2023-05-16T11:38:35.423Z,29.21
2023-05-16T11:42:41.679Z,31.56
2023-05-16T11:46:43.885Z,30.97
2023-05-16T11:50:44.491Z,29.32
2023-05-16T11:54:45.090Z,28.47
2023-05-16T11:58:48.407Z,28.12
2023-05-16T12:02:49.971Z,26.93
2023-05-16T12:07:04.384Z,27.27
2023-05-16T12:11:04.743Z,27.13
2023-05-16T12:15:11.130Z,27.41
2023-05-16T12:19:12.569Z,27.57
2023-05-16T12:23:15.092Z,27.13
2023-05-16T12:27:15.599Z,26.60
2023-05-16T12:31:31.606Z,26.83
2023-05-16T12:35:35.144Z,26.72
2023-05-16T12:39:41.652Z,25.73
2023-05-16T12:43:41.915Z,25.96
2023-05-16T12:47:44.688Z,25.89
2023-05-16T12:51:52.742Z,25.67
2023-05-16T12:55:53.090Z,25.09
2023-05-16T12:59:53.432Z,25.45
2023-05-16T13:03:56.732Z,24.77
2023-05-16T13:07:57.265Z,24.57
2023-05-16T13:11:57.487Z,24.75
2023-05-16T13:15:57.806Z,24.59
2023-05-16T13:20:00.848Z,24.47
2023-05-16T13:24:01.511Z,24.91
2023-05-16T13:28:01.734Z,25.03
2023-05-16T13:32:02.403Z,24.82
2023-05-16T13:36:05.984Z,24.39
2023-05-16T13:40:10.747Z,24.37
2023-05-16T13:44:11.245Z,24.11
2023-05-16T13:48:11.704Z,24.35
2023-05-16T13:52:15.092Z,24.08
2023-05-16T13:56:15.395Z,23.87
2023-05-16T14:00:42.829Z,24.03
2023-05-16T14:04:37.388Z,23.70
2023-05-16T14:08:40.445Z,23.88
2023-05-16T14:12:43.024Z,23.34
2023-05-16T14:16:46.213Z,23.42
2023-05-16T14:20:47.098Z,23.45
2023-05-16T14:24:49.860Z,23.34
2023-05-16T14:28:50.072Z,23.12
2023-05-16T14:32:50.362Z,23.09
2023-05-16T14:36:51.043Z,22.58
2023-05-16T14:40:53.946Z,22.81
2023-05-16T14:44:54.236Z,22.81
2023-05-16T14:48:54.434Z,22.80
2023-05-16T14:52:54.799Z,23.17
2023-05-16T14:57:00.288Z,23.63
2023-05-16T15:01:01.094Z,23.83
2023-05-16T15:05:01.465Z,23.60
2023-05-16T15:09:01.906Z,23.11
2023-05-16T15:13:04.876Z,22.72
2023-05-16T15:17:06.692Z,23.04
2023-05-16T15:21:09.959Z,22.89
2023-05-16T15:25:12.721Z,22.53
2023-05-16T15:29:15.660Z,22.04
2023-05-16T15:33:16.525Z,21.21
2023-05-16T15:37:16.860Z,21.14
2023-05-16T15:41:31.901Z,20.70
2023-05-16T15:45:40.689Z,21.09
2023-05-16T15:49:41.777Z,21.31
2023-05-16T15:53:42.576Z,20.72
2023-05-16T15:57:44.121Z,20.90
2023-05-16T16:01:47.392Z,20.59
2023-05-16T16:05:51.568Z,20.03
2023-05-16T16:09:51.904Z,20.35
2023-05-16T16:13:53.522Z,20.47
2023-05-16T16:17:56.485Z,20.44
2023-05-16T16:21:56.877Z,20.02
2023-05-16T16:25:57.244Z,19.69
2023-05-16T16:29:58.289Z,19.64
2023-05-16T16:34:01.167Z,19.18
2023-05-16T16:38:06.760Z,19.53
2023-05-16T16:42:07.951Z,19.33
2023-05-16T16:46:08.683Z,19.35
2023-05-16T16:50:13.123Z,19.38
2023-05-16T16:54:13.362Z,19.25
2023-05-16T16:58:13.722Z,19.27
2023-05-16T17:02:14.024Z,19.01
2023-05-16T17:06:17.007Z,18.87
2023-05-16T17:10:17.974Z,18.97
2023-05-16T17:14:18.262Z,19.08
2023-05-16T17:18:19.774Z,19.20
2023-05-16T17:22:23.462Z,18.68
2023-05-16T17:26:23.862Z,18.39
2023-05-16T17:30:24.481Z,19.03
2023-05-16T17:34:24.909Z,18.90
2023-05-16T17:38:28.033Z,19.01
2023-05-16T17:42:28.468Z,18.63
2023-05-16T17:46:28.996Z,19.04
2023-05-16T17:50:29.318Z,18.95
2023-05-16T17:54:32.822Z,19.18
2023-05-16T17:58:33.244Z,19.38
2023-05-16T18:02:34.945Z,19.52
2023-05-16T18:06:37.379Z,19.13
2023-05-16T18:10:51.171Z,18.71
2023-05-16T18:14:52.545Z,18.69
2023-05-16T18:18:53.138Z,18.64
2023-05-16T18:22:53.529Z,18.52
2023-05-16T18:26:56.587Z,18.39
2023-05-16T18:30:56.959Z,18.12
2023-05-16T18:34:57.783Z,17.96
2023-05-16T18:38:58.192Z,17.49
2023-05-16T18:43:01.351Z,17.66
2023-05-16T18:47:02.094Z,17.67
2023-05-16T18:51:02.794Z,17.50
2023-05-16T18:59:25.240Z,17.21
2023-05-16T19:03:25.727Z,17.36
2023-05-16T19:07:26.223Z,17.32
2023-05-16T19:11:26.793Z,17.24
2023-05-16T19:15:30.503Z,17.08
2023-05-16T19:19:31.383Z,16.83
2023-05-16T19:23:32.103Z,16.76
2023-05-16T19:27:32.954Z,16.65
2023-05-16T19:31:36.068Z,16.55
2023-05-16T19:35:36.367Z,16.54
2023-05-16T19:39:37.594Z,16.36
2023-05-16T19:43:39.321Z,16.08
2023-05-16T19:47:42.574Z,16.07
2023-05-16T19:51:43.110Z,16.19
2023-05-16T19:55:43.452Z,16.25
2023-05-16T19:59:44.155Z,16.36
2023-05-16T20:03:47.107Z,16.27
2023-05-16T20:07:48.642Z,16.26
2023-05-16T20:11:48.926Z,16.26
2023-05-16T20:15:49.462Z,16.29
2023-05-16T20:19:52.374Z,16.18
2023-05-16T20:23:53.501Z,16.13
2023-05-16T20:27:53.993Z,15.87
2023-05-16T20:31:54.271Z,15.82
2023-05-16T20:35:57.153Z,15.65
2023-05-16T20:39:57.554Z,15.46
2023-05-16T20:43:57.788Z,15.42
2023-05-16T20:47:58.199Z,15.34
2023-05-16T20:52:01.568Z,15.41
2023-05-16T20:56:02.144Z,15.31
2023-05-16T21:00:03.510Z,15.13
2023-05-16T21:04:05.097Z,15.23
2023-05-16T21:08:08.657Z,14.96
2023-05-16T21:12:09.920Z,15.06
2023-05-16T21:16:12.802Z,15.08
2023-05-16T21:20:14.161Z,14.96
2023-05-16T21:24:16.927Z,14.94
2023-05-16T21:28:17.225Z,14.72
2023-05-16T21:32:17.520Z,14.88
2023-05-16T21:36:18.236Z,14.73
2023-05-16T21:40:25.186Z,14.47
2023-05-16T21:44:25.847Z,14.61
2023-05-16T21:48:26.288Z,14.46
2023-05-16T21:52:27.282Z,14.45
2023-05-16T21:56:30.248Z,14.30
2023-05-16T22:00:30.669Z,14.24
2023-05-16T22:04:31.462Z,14.18
2023-05-16T22:08:31.907Z,14.00
2023-05-16T22:12:34.762Z,13.88
2023-05-16T22:16:34.955Z,13.93
2023-05-16T22:20:35.317Z,13.84
2023-05-16T22:24:35.505Z,13.79
2023-05-16T22:28:38.327Z,13.63
2023-05-16T22:32:38.680Z,13.86
2023-05-16T22:36:39.547Z,14.06
2023-05-16T22:40:41.341Z,14.06
2023-05-16T22:44:44.365Z,14.22
2023-05-16T22:48:44.696Z,14.36
2023-05-16T22:52:45.018Z,14.57
2023-05-16T22:56:45.648Z,14.65
2023-05-16T23:00:48.903Z,14.72
2023-05-16T23:04:49.813Z,14.93
2023-05-16T23:08:50.432Z,14.94
2023-05-16T23:12:51.058Z,14.84
2023-05-16T23:16:53.976Z,14.74
2023-05-16T23:20:54.231Z,14.71
2023-05-16T23:24:55.195Z,14.68
2023-05-16T23:28:55.434Z,14.74
2023-05-16T23:32:58.713Z,14.66
2023-05-16T23:36:58.946Z,14.54
2023-05-16T23:40:59.247Z,14.37
2023-05-16T23:44:59.484Z,14.28
2023-05-16T23:49:02.592Z,14.01
2023-05-16T23:53:02.917Z,14.08
2023-05-16T23:57:03.515Z,14.00
